createdAt,value
2022-12-20T00:01:33.710Z,10.80
2022-12-20T00:04:05.308Z,13.90
2022-12-20T00:06:35.632Z,17.40
2022-12-20T00:09:06.503Z,15.57
2022-12-20T00:11:33.432Z,18.27
2022-12-20T00:14:00.368Z,17.20
2022-12-20T00:16:29.283Z,17.83
2022-12-20T00:18:59.213Z,19.85
2022-12-20T00:21:27.229Z,18.50
2022-12-20T00:23:55.749Z,15.10
2022-12-20T00:26:26.636Z,18.90
2022-12-20T00:28:54.173Z,14.27
2022-12-20T00:31:23.836Z,19.88
2022-12-20T00:33:53.746Z,27.00
2022-12-20T00:36:23.107Z,19.95
2022-12-20T00:38:52.503Z,18.75
2022-12-20T00:41:28.854Z,20.38
2022-12-20T00:43:56.171Z,19.88
2022-12-20T00:46:23.796Z,18.70
2022-12-20T00:48:52.029Z,18.80
2022-12-20T00:51:32.801Z,28.70
2022-12-20T00:53:59.651Z,20.88
2022-12-20T00:56:26.489Z,14.65
2022-12-20T00:58:54.495Z,22.30
2022-12-20T01:01:26.268Z,17.10
2022-12-20T01:03:54.058Z,13.10
2022-12-20T01:06:22.182Z,13.85
2022-12-20T01:08:49.111Z,19.50
2022-12-20T01:11:23.933Z,18.15
2022-12-20T01:13:56.554Z,18.23
2022-12-20T01:16:36.437Z,19.20
2022-12-20T01:19:04.878Z,17.67
2022-12-20T01:21:31.670Z,16.55
2022-12-20T01:23:58.452Z,19.77
2022-12-20T01:26:28.803Z,14.80
2022-12-20T01:28:59.666Z,22.55
2022-12-20T01:31:27.642Z,16.20
2022-12-20T01:33:54.412Z,17.35
2022-12-20T01:36:28.541Z,18.30
2022-12-20T01:39:03.657Z,17.63
2022-12-20T01:41:32.359Z,18.58
2022-12-20T01:44:16.952Z,30.42
2022-12-20T01:46:45.962Z,16.75
2022-12-20T01:49:31.025Z,15.85
2022-12-20T01:52:14.897Z,19.83
2022-12-20T01:54:47.787Z,17.60
2022-12-20T01:57:21.455Z,18.73
2022-12-20T01:59:50.839Z,23.27
2022-12-20T02:02:18.462Z,18.05
2022-12-20T02:04:45.373Z,16.17
2022-12-20T02:07:19.107Z,27.08
2022-12-20T02:09:46.756Z,17.55
2022-12-20T02:12:18.554Z,18.02
2022-12-20T02:15:00.110Z,22.53
2022-12-20T02:17:54.109Z,22.88
2022-12-20T02:20:48.500Z,15.20
2022-12-20T02:23:48.814Z,16.08
2022-12-20T02:26:40.130Z,23.92
2022-12-20T02:29:26.074Z,21.55
2022-12-20T02:32:30.988Z,21.60
2022-12-20T02:34:57.769Z,18.38
2022-12-20T02:37:24.612Z,20.70
2022-12-20T02:39:52.648Z,13.93
2022-12-20T02:42:24.620Z,12.20
2022-12-20T02:45:17.834Z,15.65
2022-12-20T02:48:11.577Z,16.75
2022-12-20T02:50:40.801Z,11.77
2022-12-20T02:53:08.624Z,13.15
2022-12-20T02:55:49.292Z,19.10
2022-12-20T02:58:36.800Z,14.38
2022-12-20T03:01:14.405Z,17.20
2022-12-20T03:03:41.427Z,14.23
2022-12-20T03:06:08.601Z,12.80
2022-12-20T03:08:35.845Z,21.88
2022-12-20T03:11:03.840Z,13.77
2022-12-20T03:13:30.710Z,14.43
2022-12-20T03:15:57.663Z,13.52
2022-12-20T03:18:24.405Z,16.90
2022-12-20T03:20:51.246Z,18.15
2022-12-20T03:23:17.991Z,16.45
2022-12-20T03:25:44.806Z,18.27
2022-12-20T03:28:11.592Z,16.48
2022-12-20T03:30:38.380Z,20.10
2022-12-20T03:33:05.169Z,19.67
2022-12-20T03:35:32.023Z,12.80
2022-12-20T03:37:58.803Z,18.35
2022-12-20T03:40:25.573Z,13.32
2022-12-20T03:42:52.351Z,16.42
2022-12-20T03:45:19.204Z,15.02
2022-12-20T03:47:46.047Z,15.57
2022-12-20T03:50:13.239Z,17.90
2022-12-20T03:52:40.386Z,13.63
2022-12-20T03:55:08.236Z,14.07
2022-12-20T03:57:35.007Z,17.08
2022-12-20T04:00:02.019Z,17.05
2022-12-20T04:02:28.914Z,15.85
2022-12-20T04:04:55.875Z,14.90
2022-12-20T04:07:22.611Z,15.88
2022-12-20T04:09:49.370Z,12.07
2022-12-20T04:12:16.133Z,13.85
2022-12-20T04:14:42.890Z,14.80
2022-12-20T04:17:09.686Z,11.25
2022-12-20T04:19:36.476Z,19.75
2022-12-20T04:22:06.114Z,22.02
2022-12-20T04:24:33.079Z,18.58
2022-12-20T04:26:59.890Z,18.13
2022-12-20T04:29:26.691Z,17.40
2022-12-20T04:31:53.558Z,8.30
2022-12-20T04:34:20.511Z,16.73
2022-12-20T04:36:47.325Z,12.10
2022-12-20T04:39:14.224Z,10.25
2022-12-20T04:41:40.996Z,13.77
2022-12-20T04:44:07.819Z,11.25
2022-12-20T04:46:34.673Z,15.68
2022-12-20T04:49:01.758Z,11.10
2022-12-20T04:51:28.967Z,12.57
2022-12-20T04:53:56.427Z,26.10
2022-12-20T04:56:27.840Z,17.52
2022-12-20T04:58:57.891Z,12.77
2022-12-20T05:01:25.288Z,10.98
2022-12-20T05:03:52.941Z,15.93
2022-12-20T05:06:19.969Z,12.23
2022-12-20T05:08:47.190Z,16.60
2022-12-20T05:11:14.095Z,15.35
2022-12-20T05:13:41.347Z,17.20
2022-12-20T05:16:08.533Z,9.80
2022-12-20T05:18:35.860Z,12.70
2022-12-20T05:21:22.762Z,15.00
2022-12-20T05:24:08.390Z,13.40
2022-12-20T05:26:37.931Z,13.95
2022-12-20T05:29:05.863Z,19.70
2022-12-20T05:31:32.833Z,20.83
2022-12-20T05:33:59.731Z,16.08
2022-12-20T05:36:26.630Z,11.77
2022-12-20T05:38:56.708Z,23.75
2022-12-20T05:41:28.664Z,21.20
2022-12-20T05:43:55.668Z,16.23
2022-12-20T05:46:22.419Z,19.05
2022-12-20T05:48:49.246Z,18.50
2022-12-20T05:51:16.120Z,16.40
2022-12-20T05:53:42.884Z,20.40
2022-12-20T05:56:09.623Z,26.38
2022-12-20T05:58:36.634Z,16.20
2022-12-20T06:01:06.004Z,15.00
2022-12-20T06:03:33.015Z,18.08
2022-12-20T06:05:59.893Z,17.83
2022-12-20T06:08:27.372Z,15.13
2022-12-20T06:10:54.265Z,13.98
2022-12-20T06:13:21.198Z,19.83
2022-12-20T06:15:47.961Z,13.23
2022-12-20T06:18:14.815Z,13.30
2022-12-20T06:20:41.552Z,17.80
2022-12-20T06:23:10.103Z,17.85
2022-12-20T06:25:38.251Z,13.77
2022-12-20T06:28:05.887Z,11.35
2022-12-20T06:30:34.174Z,11.63
2022-12-20T06:33:02.407Z,20.33
2022-12-20T06:35:30.244Z,14.20
2022-12-20T06:37:57.244Z,14.55
2022-12-20T06:40:26.853Z,12.45
2022-12-20T06:42:53.693Z,13.95
2022-12-20T06:45:20.465Z,14.23
2022-12-20T06:47:47.263Z,12.32
2022-12-20T06:50:14.139Z,15.93
2022-12-20T06:52:40.928Z,17.63
2022-12-20T06:55:08.268Z,13.60
2022-12-20T06:57:35.057Z,13.73
2022-12-20T07:00:02.157Z,15.48
2022-12-20T07:02:29.193Z,13.27
2022-12-20T07:04:56.020Z,9.02
2022-12-20T07:07:23.452Z,13.32
2022-12-20T07:09:50.181Z,11.85
2022-12-20T07:12:17.103Z,12.18
2022-12-20T07:14:44.062Z,13.27
2022-12-20T07:17:14.343Z,10.63
2022-12-20T07:19:45.702Z,9.45
2022-12-20T07:22:17.247Z,14.20
2022-12-20T07:24:44.170Z,10.52
2022-12-20T07:27:11.739Z,7.07
2022-12-20T07:29:42.090Z,12.15
2022-12-20T07:32:09.673Z,9.65
2022-12-20T07:34:39.402Z,12.40
2022-12-20T07:37:06.634Z,7.43
2022-12-20T07:39:33.400Z,6.88
2022-12-20T07:42:00.324Z,10.20
2022-12-20T07:44:27.956Z,6.15
2022-12-20T07:46:55.104Z,6.82
2022-12-20T07:49:22.318Z,9.27
2022-12-20T07:51:54.421Z,9.45
2022-12-20T07:54:31.679Z,10.55
2022-12-20T07:57:04.411Z,14.60
2022-12-20T08:02:15.809Z,23.80
2022-12-20T08:04:43.396Z,13.65
2022-12-20T08:07:10.646Z,11.32
2022-12-20T08:09:42.317Z,10.45
2022-12-20T08:12:11.121Z,6.72
2022-12-20T08:14:38.281Z,10.63
2022-12-20T08:17:05.157Z,12.02
2022-12-20T08:19:32.723Z,14.23
2022-12-20T08:21:59.939Z,7.72
2022-12-20T08:24:26.876Z,13.23
2022-12-20T08:26:53.707Z,22.00
2022-12-20T08:29:21.267Z,13.77
2022-12-20T08:31:50.627Z,7.38
2022-12-20T08:34:17.895Z,13.45
2022-12-20T08:36:44.693Z,11.25
2022-12-20T08:39:11.696Z,13.40
2022-12-20T08:41:38.637Z,11.55
2022-12-20T08:44:06.499Z,7.55
2022-12-20T08:46:33.396Z,11.88
2022-12-20T08:49:00.207Z,8.27
2022-12-20T08:51:27.132Z,12.55
2022-12-20T08:53:54.076Z,11.82
2022-12-20T08:56:21.533Z,10.57
2022-12-20T08:58:48.876Z,15.40
2022-12-20T09:01:19.241Z,9.80
2022-12-20T09:03:46.770Z,9.93
2022-12-20T09:06:20.534Z,10.38
2022-12-20T09:08:48.523Z,15.43
2022-12-20T09:11:24.965Z,17.02
2022-12-20T09:13:54.726Z,30.10
2022-12-20T09:16:27.181Z,29.77
2022-12-20T09:19:04.279Z,24.88
2022-12-20T09:21:32.053Z,22.73
2022-12-20T09:23:58.854Z,23.48
2022-12-20T09:26:26.346Z,23.08
2022-12-20T09:28:54.022Z,21.55
2022-12-20T09:31:25.012Z,22.35
2022-12-20T09:33:59.984Z,21.27
2022-12-20T09:36:29.209Z,15.55
2022-12-20T09:38:57.152Z,19.85
2022-12-20T09:41:33.759Z,17.15
2022-12-20T09:44:14.539Z,21.20
2022-12-20T09:46:43.071Z,19.23
2022-12-20T09:49:17.886Z,35.30
2022-12-20T09:52:13.126Z,22.25
2022-12-20T09:55:15.100Z,18.92
2022-12-20T09:58:17.389Z,22.45
2022-12-20T10:00:53.518Z,24.90
2022-12-20T10:03:30.600Z,27.45
2022-12-20T10:06:07.628Z,21.30
2022-12-20T10:08:46.626Z,17.80
2022-12-20T10:11:42.057Z,23.63
2022-12-20T10:14:54.669Z,26.58
2022-12-20T10:17:34.662Z,16.92
2022-12-20T10:20:31.252Z,21.58
2022-12-20T10:23:08.516Z,18.23
2022-12-20T10:25:36.057Z,17.38
2022-12-20T10:28:11.678Z,20.85
2022-12-20T10:30:38.519Z,22.00
2022-12-20T10:33:05.403Z,21.25
2022-12-20T10:35:41.061Z,20.75
2022-12-20T10:38:14.108Z,17.52
2022-12-20T10:41:20.753Z,19.27
2022-12-20T10:44:29.910Z,16.55
2022-12-20T10:47:02.159Z,20.42
2022-12-20T10:49:34.155Z,23.75
2022-12-20T10:52:14.258Z,15.87
2022-12-20T10:54:46.922Z,19.75
2022-12-20T10:57:24.628Z,23.80
2022-12-20T10:59:54.888Z,19.02
2022-12-20T11:02:40.015Z,17.45
2022-12-20T11:05:11.513Z,18.17
2022-12-20T11:10:48.067Z,21.98
2022-12-20T11:13:29.511Z,22.23
2022-12-20T11:16:01.585Z,21.98
2022-12-20T11:19:17.461Z,26.25
2022-12-20T11:22:02.696Z,23.55
2022-12-20T11:25:20.946Z,19.48
2022-12-20T11:28:25.466Z,14.75
2022-12-20T11:31:43.673Z,14.52
2022-12-20T11:34:35.005Z,24.00
2022-12-20T11:37:52.211Z,14.15
2022-12-20T11:40:31.423Z,15.90
2022-12-20T11:43:04.017Z,13.85
2022-12-20T11:45:35.527Z,18.00
2022-12-20T11:48:42.089Z,15.80
2022-12-20T11:51:26.972Z,12.77
2022-12-20T11:54:01.689Z,18.15
2022-12-20T11:56:43.943Z,17.73
2022-12-20T11:59:24.421Z,17.02
2022-12-20T12:02:01.687Z,13.07
2022-12-20T12:04:34.715Z,15.57
2022-12-20T12:09:49.979Z,9.82
2022-12-20T12:12:27.590Z,12.13
2022-12-20T12:15:17.437Z,16.48
2022-12-20T12:18:03.798Z,10.13
2022-12-20T12:20:51.081Z,12.68
2022-12-20T12:23:28.399Z,12.82
2022-12-20T12:25:55.194Z,21.38
2022-12-20T12:28:23.790Z,18.92
2022-12-20T12:31:19.379Z,19.35
2022-12-20T12:34:08.928Z,18.77
2022-12-20T12:36:56.403Z,20.20
2022-12-20T12:40:02.770Z,21.83
2022-12-20T12:43:09.717Z,30.30
2022-12-20T12:45:52.864Z,29.42
2022-12-20T12:50:54.325Z,28.98
2022-12-20T12:53:30.987Z,24.38
2022-12-20T12:56:12.950Z,29.30
2022-12-20T12:58:49.045Z,31.52
2022-12-20T13:01:56.175Z,33.30
2022-12-20T13:04:30.134Z,30.90
2022-12-20T13:07:03.901Z,33.70
2022-12-20T13:09:30.601Z,31.55
2022-12-20T13:12:02.435Z,34.13
2022-12-20T13:14:32.293Z,30.98
2022-12-20T13:17:13.758Z,27.00
2022-12-20T13:19:52.626Z,28.88
2022-12-20T13:22:27.023Z,19.30
2022-12-20T13:25:03.080Z,23.48
2022-12-20T13:27:29.829Z,20.95
2022-12-20T13:30:17.436Z,20.48
2022-12-20T13:32:46.890Z,20.98
2022-12-20T13:35:26.184Z,29.27
2022-12-20T13:38:06.202Z,31.70
2022-12-20T13:40:52.875Z,26.92
2022-12-20T13:43:19.520Z,27.65
2022-12-20T13:45:49.664Z,19.33
2022-12-20T13:48:23.287Z,21.13
2022-12-20T13:50:53.071Z,17.55
2022-12-20T13:53:27.297Z,24.95
2022-12-20T13:55:55.180Z,20.15
2022-12-20T13:58:25.763Z,28.85
2022-12-20T14:00:53.991Z,21.58
2022-12-20T14:03:28.429Z,29.95
2022-12-20T14:06:19.190Z,31.05
2022-12-20T14:08:52.192Z,33.20
2022-12-20T14:11:22.873Z,23.10
2022-12-20T14:14:04.730Z,19.90
2022-12-20T14:16:33.721Z,19.98
2022-12-20T14:19:06.735Z,23.05
2022-12-20T14:24:05.129Z,23.60
2022-12-20T14:26:48.165Z,22.67
2022-12-20T14:29:24.444Z,24.90
2022-12-20T14:31:51.266Z,23.77
2022-12-20T14:34:29.554Z,26.67
2022-12-20T14:37:32.378Z,20.60
2022-12-20T14:40:10.935Z,22.25
2022-12-20T14:42:40.338Z,26.48
2022-12-20T14:45:21.855Z,21.67
2022-12-20T14:48:01.982Z,20.20
2022-12-20T14:50:36.372Z,18.33
2022-12-20T14:53:03.695Z,17.35
2022-12-20T14:55:45.456Z,18.50
2022-12-20T14:58:31.821Z,25.92
2022-12-20T15:01:16.546Z,24.98
2022-12-20T15:04:00.403Z,34.95
2022-12-20T15:06:40.206Z,28.02
2022-12-20T15:09:07.063Z,29.33
2022-12-20T15:11:35.983Z,25.08
2022-12-20T15:14:04.452Z,26.08
2022-12-20T15:16:31.383Z,29.40
2022-12-20T15:19:03.207Z,35.33
2022-12-20T15:21:34.159Z,31.92
2022-12-20T15:24:07.875Z,32.83
2022-12-20T15:26:35.635Z,17.60
2022-12-20T15:29:02.346Z,19.95
2022-12-20T15:31:33.672Z,19.98
2022-12-20T15:34:04.936Z,23.50
2022-12-20T15:36:33.653Z,19.30
2022-12-20T15:39:12.677Z,18.35
2022-12-20T15:41:44.077Z,18.40
2022-12-20T15:44:18.059Z,20.63
2022-12-20T15:46:44.990Z,23.63
2022-12-20T15:49:19.411Z,16.00
2022-12-20T15:51:49.607Z,16.77
2022-12-20T15:54:37.284Z,19.10
2022-12-20T15:57:07.767Z,17.17
2022-12-20T16:02:28.024Z,20.13
2022-12-20T16:04:55.562Z,16.75
2022-12-20T16:07:22.853Z,13.60
2022-12-20T16:09:49.727Z,16.63
2022-12-20T16:12:21.761Z,22.48
2022-12-20T16:14:48.579Z,23.47
2022-12-20T16:17:15.978Z,21.23
2022-12-20T16:19:44.075Z,16.90
2022-12-20T16:22:22.860Z,19.63
2022-12-20T16:24:50.148Z,21.45
2022-12-20T16:27:16.923Z,23.35
2022-12-20T16:29:43.753Z,20.67
2022-12-20T16:32:19.764Z,24.45
2022-12-20T16:34:47.509Z,19.50
2022-12-20T16:37:14.359Z,23.30
2022-12-20T16:39:42.077Z,22.55
2022-12-20T16:42:17.730Z,18.48
2022-12-20T16:44:45.686Z,16.23
2022-12-20T16:47:13.777Z,15.73
2022-12-20T16:49:47.174Z,16.05
2022-12-20T16:52:18.872Z,15.85
2022-12-20T16:54:45.675Z,22.40
2022-12-20T16:57:12.453Z,18.05
2022-12-20T16:59:39.265Z,16.23
2022-12-20T17:02:23.965Z,18.90
2022-12-20T17:04:51.093Z,15.52
2022-12-20T17:07:17.953Z,16.70
2022-12-20T17:09:56.604Z,13.07
2022-12-20T17:12:23.497Z,7.43
2022-12-20T17:14:50.286Z,14.75
2022-12-20T17:17:17.685Z,7.45
2022-12-20T17:19:44.941Z,11.45
2022-12-20T17:22:25.253Z,12.48
2022-12-20T17:24:52.098Z,7.45
2022-12-20T17:27:19.132Z,18.83
2022-12-20T17:29:46.012Z,12.25
2022-12-20T17:32:25.916Z,10.02
2022-12-20T17:34:53.104Z,7.50
2022-12-20T17:37:21.085Z,9.48
2022-12-20T17:39:48.163Z,7.25
2022-12-20T17:42:15.464Z,8.05
2022-12-20T17:44:42.598Z,9.43
2022-12-20T17:47:09.725Z,10.95
2022-12-20T17:49:36.508Z,12.50
2022-12-20T17:52:03.845Z,10.63
2022-12-20T17:54:36.831Z,9.52
2022-12-20T17:57:12.000Z,8.23
2022-12-20T17:59:38.737Z,16.40
2022-12-20T18:02:21.354Z,6.75
2022-12-20T18:04:48.565Z,6.40
2022-12-20T18:07:15.378Z,7.30
2022-12-20T18:09:42.109Z,12.50
2022-12-20T18:12:11.012Z,10.88
2022-12-20T18:14:37.776Z,11.27
2022-12-20T18:17:04.617Z,8.13
2022-12-20T18:19:31.966Z,13.43
2022-12-20T18:22:00.089Z,9.52
2022-12-20T18:24:27.619Z,11.68
2022-12-20T18:26:54.355Z,12.45
2022-12-20T18:29:21.621Z,23.85
2022-12-20T18:31:48.474Z,21.77
2022-12-20T18:34:15.246Z,51.38
2022-12-20T18:36:42.293Z,45.92
2022-12-20T18:39:13.267Z,37.85
2022-12-20T18:41:43.012Z,38.55
2022-12-20T18:44:11.431Z,34.78
2022-12-20T18:46:38.575Z,30.42
2022-12-20T18:49:05.475Z,26.27
2022-12-20T18:51:38.398Z,25.55
2022-12-20T18:54:08.080Z,28.83
2022-12-20T18:56:38.141Z,26.42
2022-12-20T18:59:11.378Z,28.35
2022-12-20T19:01:40.202Z,17.73
2022-12-20T19:04:08.185Z,22.48
2022-12-20T19:06:36.994Z,24.25
2022-12-20T19:09:11.549Z,20.30
2022-12-20T19:11:38.400Z,16.25
2022-12-20T19:14:05.665Z,21.92
2022-12-20T19:16:33.333Z,16.52
2022-12-20T19:19:04.294Z,17.50
2022-12-20T19:21:33.925Z,20.88
2022-12-20T19:24:05.695Z,15.45
2022-12-20T19:26:34.240Z,25.63
2022-12-20T19:29:01.054Z,18.75
2022-12-20T19:31:31.646Z,16.30
2022-12-20T19:34:02.010Z,21.10
2022-12-20T19:36:39.722Z,14.73
2022-12-20T19:39:13.814Z,13.27
2022-12-20T19:41:40.930Z,16.88
2022-12-20T19:44:08.947Z,21.23
2022-12-20T19:46:35.805Z,21.17
2022-12-20T19:49:02.617Z,19.48
2022-12-20T19:51:29.466Z,25.75
2022-12-20T19:53:58.240Z,26.80
2022-12-20T19:56:28.797Z,20.98
2022-12-20T19:58:56.510Z,19.80
2022-12-20T20:01:27.017Z,21.75
2022-12-20T20:03:56.891Z,16.15
2022-12-20T20:06:24.432Z,20.27
2022-12-20T20:08:51.649Z,14.65
2022-12-20T20:11:21.158Z,17.58
2022-12-20T20:13:48.360Z,9.20
2022-12-20T20:16:21.581Z,12.18
2022-12-20T20:18:49.343Z,13.52
2022-12-20T20:21:21.436Z,8.77
2022-12-20T20:23:52.784Z,11.85
2022-12-20T20:26:24.067Z,9.27
2022-12-20T20:28:51.895Z,6.68
2022-12-20T20:31:20.735Z,7.35
2022-12-20T20:33:47.978Z,9.70
2022-12-20T20:36:19.485Z,8.90
2022-12-20T20:38:46.933Z,11.93
2022-12-20T20:41:14.414Z,5.38
2022-12-20T20:43:42.267Z,7.60
2022-12-20T20:46:12.674Z,11.90
2022-12-20T20:48:40.745Z,8.98
2022-12-20T20:51:07.597Z,7.30
2022-12-20T20:53:35.107Z,6.57
2022-12-20T20:56:03.565Z,7.72
2022-12-20T20:58:31.088Z,6.18
2022-12-20T21:01:03.367Z,8.65
2022-12-20T21:03:31.357Z,6.35
2022-12-20T21:08:45.437Z,6.63
2022-12-20T21:11:13.628Z,7.80
2022-12-20T21:13:40.649Z,8.60
2022-12-20T21:16:20.638Z,7.63
2022-12-20T21:18:58.694Z,7.72
2022-12-20T21:21:26.990Z,6.53
2022-12-20T21:23:54.899Z,8.07
2022-12-20T21:26:23.729Z,6.75
2022-12-20T21:28:50.474Z,7.75
2022-12-20T21:31:19.876Z,8.20
2022-12-20T21:33:46.962Z,8.18
2022-12-20T21:36:17.421Z,8.15
2022-12-20T21:38:52.661Z,7.78
2022-12-20T21:41:23.376Z,9.85
2022-12-20T21:43:51.479Z,10.40
2022-12-20T21:46:18.356Z,11.27
2022-12-20T21:48:45.395Z,11.07
2022-12-20T21:51:15.824Z,11.80
2022-12-20T21:53:46.293Z,13.23
2022-12-20T21:56:13.654Z,10.55
2022-12-20T21:58:40.404Z,13.25
2022-12-20T22:01:08.494Z,11.55
2022-12-20T22:03:36.851Z,15.98
2022-12-20T22:06:04.490Z,11.23
2022-12-20T22:08:33.082Z,13.70
2022-12-20T22:11:15.837Z,10.55
2022-12-20T22:13:43.022Z,13.65
2022-12-20T22:16:16.579Z,10.13
2022-12-20T22:18:45.013Z,9.70
2022-12-20T22:21:14.637Z,8.45
2022-12-20T22:23:42.384Z,8.55
2022-12-20T22:26:13.509Z,14.20
2022-12-20T22:28:49.246Z,15.02
2022-12-20T22:31:16.998Z,7.78
2022-12-20T22:33:44.781Z,9.73
2022-12-20T22:36:15.388Z,11.80
2022-12-20T22:38:46.124Z,7.70
2022-12-20T22:41:22.548Z,9.48
2022-12-20T22:43:50.357Z,15.43
2022-12-20T22:46:19.017Z,16.15
2022-12-20T22:48:46.682Z,10.80
2022-12-20T22:51:24.886Z,12.02
2022-12-20T22:53:52.230Z,10.88
2022-12-20T22:56:21.756Z,13.20
2022-12-20T22:58:49.730Z,21.55
2022-12-20T23:01:19.498Z,10.02
2022-12-20T23:03:46.716Z,7.43
2022-12-20T23:06:17.555Z,8.25
2022-12-20T23:08:44.782Z,7.40
2022-12-20T23:11:47.529Z,11.32
2022-12-20T23:14:37.106Z,7.00
2022-12-20T23:17:05.411Z,8.82
2022-12-20T23:19:52.459Z,7.55
2022-12-20T23:22:39.457Z,9.38
2022-12-20T23:25:14.579Z,9.60
2022-12-20T23:27:43.508Z,8.40
2022-12-20T23:30:15.035Z,5.00
2022-12-20T23:32:45.312Z,5.80
2022-12-20T23:35:15.258Z,6.40
2022-12-20T23:37:42.411Z,12.85
2022-12-20T23:40:10.911Z,7.85
2022-12-20T23:42:38.284Z,6.90
2022-12-20T23:45:05.391Z,5.80
2022-12-20T23:47:32.680Z,6.75
2022-12-20T23:49:59.405Z,6.18
2022-12-20T23:52:26.496Z,12.48
2022-12-20T23:54:53.284Z,5.65
2022-12-20T23:57:20.048Z,4.40
2022-12-20T23:59:46.756Z,5.25
